Time;durP1;ratioP1;P1;durP2;ratioP2;P2;SDS_P1;SDS_P2;PMS_P1;PMS_P2;Temp;Humidity;BMP_temperature;BMP_pressure;BME280_temperature;BME280_humidity;BME280_pressure;Samples;Min_cycle;Max_cycle;Signal;HPM_P1;HPM_P2
2024/04/18 00:02:07;;;;;;;;;;;6.60;99.90;;;;;;5467848;26;19935;-55
2024/04/18 00:04:33;;;;;;;;;;;6.60;99.90;;;;;;5452100;26;20268;-55
2024/04/18 00:07:00;;;;;;;;;;;6.70;99.90;;;;;;5438068;26;19943;-55
2024/04/18 00:09:26;;;;;;;;;;;6.70;99.90;;;;;;5459579;26;20433;-54
2024/04/18 00:11:52;;;;;;;;;;;6.80;99.90;;;;;;5440031;26;19935;-55
2024/04/18 00:14:17;;;;;;;;;;;6.60;99.90;;;;;;5453228;26;19936;-54
2024/04/18 00:16:43;;;;;;;;;;;6.60;99.90;;;;;;5439768;26;19954;-54
2024/04/18 00:19:09;;;;;;;;;;;6.80;99.90;;;;;;5439253;26;20348;-55
2024/04/18 00:21:35;;;;;;;;;;;6.80;99.90;;;;;;5445924;26;20340;-54
2024/04/18 00:24:00;;;;;;;;;;;6.70;99.90;;;;;;5441893;26;20066;-54
2024/04/18 00:26:26;;;;;;;;;;;6.70;99.90;;;;;;5438093;26;19997;-55
2024/04/18 00:28:52;;;;;;;;;;;6.80;99.90;;;;;;5438216;26;19939;-53
2024/04/18 00:31:17;;;;;;;;;;;6.80;99.90;;;;;;5436768;26;19941;-53
2024/04/18 00:33:43;;;;;;;;;;;6.80;99.90;;;;;;5443083;26;19937;-53
2024/04/18 00:36:10;;;;;;;;;;;6.90;99.90;;;;;;5449548;26;20338;-52
2024/04/18 00:38:35;;;;;;;;;;;6.90;99.90;;;;;;5437241;26;19928;-52
2024/04/18 00:41:01;;;;;;;;;;;6.90;99.90;;;;;;5441339;26;19957;-54
2024/04/18 00:43:27;;;;;;;;;;;6.80;99.90;;;;;;5449480;26;20006;-54
2024/04/18 00:45:55;;;;;;;;;;;6.90;99.90;;;;;;5457558;26;20009;-54
2024/04/18 00:48:21;;;;;;;;;;;6.90;99.90;;;;;;5438766;26;19935;-54
2024/04/18 00:50:48;;;;;;;;;;;6.90;99.90;;;;;;5436931;26;19936;-55
2024/04/18 00:53:14;;;;;;;;;;;6.90;99.90;;;;;;5435533;26;20352;-55
2024/04/18 00:55:40;;;;;;;;;;;6.90;99.90;;;;;;5437721;26;19928;-55
2024/04/18 00:58:25;;;;;;;;;;;7.00;99.90;;;;;;5447629;26;19996;-53
2024/04/18 01:00:52;;;;;;;;;;;7.00;99.90;;;;;;5438477;26;19997;-54
2024/04/18 01:03:17;;;;;;;;;;;7.00;99.90;;;;;;5445073;26;19928;-55
2024/04/18 01:05:43;;;;;;;;;;;6.80;99.90;;;;;;5438305;26;20235;-55
2024/04/18 01:08:09;;;;;;;;;;;6.80;99.90;;;;;;5444594;26;19936;-53
2024/04/18 01:10:35;;;;;;;;;;;6.70;99.90;;;;;;5438107;26;19981;-52
2024/04/18 01:13:01;;;;;;;;;;;6.60;99.90;;;;;;5453630;26;20275;-54
2024/04/18 01:15:27;;;;;;;;;;;6.60;99.90;;;;;;5466103;26;20351;-54
2024/04/18 01:17:53;;;;;;;;;;;6.50;99.90;;;;;;5447539;26;19936;-53
2024/04/18 01:20:20;;;;;;;;;;;6.50;99.90;;;;;;5454240;26;19935;-54
2024/04/18 01:22:46;;;;;;;;;;;6.40;99.90;;;;;;5446413;26;19940;-54
2024/04/18 01:25:12;;;;;;;;;;;6.40;99.90;;;;;;5441796;26;19929;-52
2024/04/18 01:27:38;;;;;;;;;;;6.30;99.90;;;;;;5451861;26;20507;-54
2024/04/18 01:30:10;;;;;;;;;;;6.30;99.90;;;;;;5456375;26;19928;-54
2024/04/18 01:32:36;;;;;;;;;;;6.10;99.90;;;;;;5449176;26;20488;-53
2024/04/18 01:35:02;;;;;;;;;;;6.10;99.90;;;;;;5447564;26;19927;-53
2024/04/18 01:37:29;;;;;;;;;;;6.00;99.90;;;;;;5443183;26;19997;-54
2024/04/18 01:39:55;;;;;;;;;;;5.90;99.90;;;;;;5448614;26;19928;-52
2024/04/18 01:42:20;;;;;;;;;;;5.80;99.90;;;;;;5472163;26;19931;-53
2024/04/18 01:44:49;;;;;;;;;;;5.90;99.90;;;;;;5461616;26;19998;-52
2024/04/18 01:47:15;;;;;;;;;;;5.80;99.90;;;;;;5451624;26;19948;-52
2024/04/18 01:49:40;;;;;;;;;;;5.90;99.90;;;;;;5439032;26;19974;-54
2024/04/18 01:52:06;;;;;;;;;;;5.90;99.90;;;;;;5455080;26;20440;-52
2024/04/18 01:54:32;;;;;;;;;;;5.90;99.90;;;;;;5441277;26;19929;-53
2024/04/18 01:56:58;;;;;;;;;;;5.70;99.90;;;;;;5456437;26;20470;-53
2024/04/18 01:59:24;;;;;;;;;;;5.70;99.90;;;;;;5439111;26;20434;-55
2024/04/18 02:01:50;;;;;;;;;;;5.70;99.90;;;;;;5446731;26;20011;-53
2024/04/18 02:04:19;;;;;;;;;;;5.70;99.90;;;;;;5442615;26;20347;-54
2024/04/18 02:06:47;;;;;;;;;;;5.70;99.90;;;;;;5439764;26;19928;-53
2024/04/18 02:09:12;;;;;;;;;;;5.60;99.90;;;;;;5434343;26;20271;-54
2024/04/18 02:11:42;;;;;;;;;;;5.60;99.90;;;;;;5440405;26;19928;-54
2024/04/18 02:14:07;;;;;;;;;;;5.60;99.90;;;;;;5457982;26;20008;-52
2024/04/18 02:16:33;;;;;;;;;;;5.50;99.90;;;;;;5440535;26;19936;-52
2024/04/18 02:18:59;;;;;;;;;;;5.50;99.90;;;;;;5445195;26;20306;-53
2024/04/18 02:21:24;;;;;;;;;;;5.40;99.90;;;;;;5448028;26;19935;-52
2024/04/18 02:23:51;;;;;;;;;;;5.30;99.90;;;;;;5438507;26;19956;-51
2024/04/18 02:26:16;;;;;;;;;;;5.30;99.90;;;;;;5458419;26;19936;-52
2024/04/18 02:28:42;;;;;;;;;;;5.30;99.90;;;;;;5448237;26;19943;-54
2024/04/18 02:31:08;;;;;;;;;;;5.40;99.90;;;;;;5457937;26;20433;-53
2024/04/18 02:33:34;;;;;;;;;;;5.30;99.90;;;;;;5442106;26;20018;-55
2024/04/18 02:36:00;;;;;;;;;;;5.20;99.90;;;;;;5455090;26;20561;-51
2024/04/18 02:38:27;;;;;;;;;;;5.30;99.90;;;;;;5442602;26;19932;-54
2024/04/18 02:41:02;;;;;;;;;;;5.30;99.90;;;;;;5436203;26;19929;-53
2024/04/18 02:43:28;;;;;;;;;;;5.20;99.90;;;;;;5450065;26;20293;-55
2024/04/18 02:45:54;;;;;;;;;;;5.20;99.90;;;;;;5440766;26;20590;-53
2024/04/18 02:48:20;;;;;;;;;;;5.20;99.90;;;;;;5445275;26;19936;-54
2024/04/18 02:50:56;;;;;;;;;;;5.30;99.90;;;;;;5438063;26;20447;-53
2024/04/18 02:53:21;;;;;;;;;;;5.10;99.90;;;;;;5438570;26;19932;-55
2024/04/18 02:55:47;;;;;;;;;;;5.10;99.90;;;;;;5443121;26;19929;-55
2024/04/18 02:58:13;;;;;;;;;;;5.10;99.90;;;;;;5452978;26;20001;-55
2024/04/18 03:00:38;;;;;;;;;;;5.10;99.90;;;;;;5440721;26;20485;-52
2024/04/18 03:03:04;;;;;;;;;;;5.10;99.90;;;;;;5440115;26;19936;-53
2024/04/18 03:05:30;;;;;;;;;;;5.20;99.90;;;;;;5449508;26;19927;-54
2024/04/18 03:07:56;;;;;;;;;;;5.10;99.90;;;;;;5448710;26;19947;-53
2024/04/18 03:10:25;;;;;;;;;;;5.10;99.90;;;;;;5453969;26;20008;-53
2024/04/18 03:12:54;;;;;;;;;;;5.00;99.90;;;;;;5446897;26;19928;-55
2024/04/18 03:15:20;;;;;;;;;;;5.10;99.90;;;;;;5447207;26;20259;-55
2024/04/18 03:17:53;;;;;;;;;;;5.00;99.90;;;;;;5439823;26;20314;-54
2024/04/18 03:20:19;;;;;;;;;;;5.00;99.90;;;;;;5454679;26;19958;-53
2024/04/18 03:22:45;;;;;;;;;;;5.00;99.90;;;;;;5450341;26;20375;-54
2024/04/18 03:25:10;;;;;;;;;;;4.80;99.90;;;;;;5449528;26;19936;-53
2024/04/18 03:27:36;;;;;;;;;;;4.80;99.90;;;;;;5451184;26;19940;-55
2024/04/18 03:30:07;;;;;;;;;;;4.70;99.90;;;;;;5446919;26;19932;-53
2024/04/18 03:32:36;;;;;;;;;;;4.60;99.90;;;;;;5467806;26;19932;-54
2024/04/18 03:35:02;;;;;;;;;;;4.60;99.90;;;;;;5464914;26;19935;-54
2024/04/18 03:37:28;;;;;;;;;;;4.60;99.90;;;;;;5437176;26;20506;-54
2024/04/18 03:39:57;;;;;;;;;;;4.60;99.90;;;;;;5454502;26;20453;-52
2024/04/18 03:42:23;;;;;;;;;;;4.50;99.90;;;;;;5437541;26;19940;-54
2024/04/18 03:44:49;;;;;;;;;;;4.50;99.90;;;;;;5458912;26;20436;-54
2024/04/18 03:47:15;;;;;;;;;;;4.50;99.90;;;;;;5460525;26;19931;-54
2024/04/18 03:49:40;;;;;;;;;;;4.60;99.90;;;;;;5468493;26;19935;-55
2024/04/18 03:52:24;;;;;;;;;;;4.60;99.90;;;;;;5442637;26;20547;-53
2024/04/18 03:54:50;;;;;;;;;;;4.50;99.90;;;;;;5438609;26;19928;-54
2024/04/18 03:57:35;;;;;;;;;;;4.60;99.90;;;;;;5437724;26;19935;-52
2024/04/18 04:00:02;;;;;;;;;;;4.60;99.90;;;;;;5438821;26;19928;-54
2024/04/18 04:02:27;;;;;;;;;;;4.50;99.90;;;;;;5439188;26;19996;-52
2024/04/18 04:04:55;;;;;;;;;;;4.60;99.90;;;;;;5440026;26;20050;-53
2024/04/18 04:07:21;;;;;;;;;;;4.50;99.90;;;;;;5441673;26;19936;-53
2024/04/18 04:10:07;;;;;;;;;;;4.60;99.90;;;;;;5411587;26;20016;-53
2024/04/18 04:12:36;;;;;;;;;;;4.60;99.90;;;;;;5443130;26;19968;-53
2024/04/18 04:15:02;;;;;;;;;;;4.60;99.90;;;;;;5455630;26;19928;-53
2024/04/18 04:17:48;;;;;;;;;;;4.60;99.90;;;;;;5447515;26;19929;-54
2024/04/18 04:20:14;;;;;;;;;;;4.40;99.90;;;;;;5442839;26;20394;-55
2024/04/18 04:22:39;;;;;;;;;;;4.40;99.90;;;;;;5455186;26;19934;-52
2024/04/18 04:25:05;;;;;;;;;;;4.40;99.90;;;;;;5443536;26;19936;-52
2024/04/18 04:27:47;;;;;;;;;;;4.50;99.90;;;;;;5437541;26;20020;-53
2024/04/18 04:30:12;;;;;;;;;;;4.40;99.90;;;;;;5457546;26;20379;-54
2024/04/18 04:32:38;;;;;;;;;;;4.40;99.90;;;;;;5438627;26;19996;-53
2024/04/18 04:35:05;;;;;;;;;;;4.40;99.90;;;;;;5440856;26;19940;-53
2024/04/18 04:37:30;;;;;;;;;;;4.50;99.90;;;;;;5437279;26;19928;-51
2024/04/18 04:39:57;;;;;;;;;;;4.50;99.90;;;;;;5424535;26;19932;-54
2024/04/18 04:42:23;;;;;;;;;;;4.50;99.90;;;;;;5435393;26;19935;-53
2024/04/18 04:44:48;;;;;;;;;;;4.40;99.90;;;;;;5448826;26;19928;-53
2024/04/18 04:47:14;;;;;;;;;;;4.40;99.90;;;;;;5440795;26;20362;-54
2024/04/18 04:49:40;;;;;;;;;;;4.30;99.90;;;;;;5452324;26;19990;-53
2024/04/18 04:52:06;;;;;;;;;;;4.30;99.90;;;;;;5442832;26;19940;-54
2024/04/18 04:54:32;;;;;;;;;;;4.30;99.90;;;;;;5442883;26;19957;-53
2024/04/18 04:56:57;;;;;;;;;;;4.30;99.90;;;;;;5440319;26;19928;-54
2024/04/18 04:59:23;;;;;;;;;;;4.20;99.90;;;;;;5448671;26;19939;-54
2024/04/18 05:01:49;;;;;;;;;;;4.30;99.90;;;;;;5440306;26;19997;-53
2024/04/18 05:04:14;;;;;;;;;;;4.30;99.90;;;;;;5466724;26;19940;-54
2024/04/18 05:06:40;;;;;;;;;;;4.40;99.90;;;;;;5434794;26;19929;-54
2024/04/18 05:09:06;;;;;;;;;;;4.40;99.90;;;;;;5437990;26;19940;-55
2024/04/18 05:11:32;;;;;;;;;;;4.40;99.90;;;;;;5443381;26;19929;-54
2024/04/18 05:13:58;;;;;;;;;;;4.30;99.90;;;;;;5441789;26;20507;-54
2024/04/18 05:16:23;;;;;;;;;;;4.40;99.90;;;;;;5439494;26;19949;-55
2024/04/18 05:18:49;;;;;;;;;;;4.40;99.90;;;;;;5435958;26;20011;-54
2024/04/18 05:21:15;;;;;;;;;;;4.40;99.90;;;;;;5449794;26;19935;-55
2024/04/18 05:23:41;;;;;;;;;;;4.40;99.90;;;;;;5454556;26;19946;-54
2024/04/18 05:26:06;;;;;;;;;;;4.40;99.90;;;;;;5448178;26;20383;-55
2024/04/18 05:31:00;;;;;;;;;;;4.30;99.90;;;;;;5449669;26;19940;-54
2024/04/18 05:31:27;;;;;;;;;;;4.40;99.90;;;;;;5439509;26;20362;-54
2024/04/18 05:33:53;;;;;;;;;;;4.60;99.90;;;;;;5446632;26;20080;-52
2024/04/18 05:36:19;;;;;;;;;;;4.60;99.90;;;;;;5428573;26;19929;-54
2024/04/18 05:38:44;;;;;;;;;;;4.70;99.90;;;;;;5436342;26;19936;-54
2024/04/18 05:41:11;;;;;;;;;;;4.70;99.90;;;;;;5449559;26;20368;-52
2024/04/18 05:43:37;;;;;;;;;;;4.80;99.90;;;;;;5453019;26;20448;-54
2024/04/18 05:46:02;;;;;;;;;;;4.90;99.90;;;;;;5450106;26;20386;-53
2024/04/18 05:48:30;;;;;;;;;;;5.00;99.90;;;;;;5454591;26;19955;-53
2024/04/18 05:50:56;;;;;;;;;;;5.00;99.90;;;;;;5453585;26;19927;-52
2024/04/18 05:53:22;;;;;;;;;;;5.00;99.90;;;;;;5453177;26;19933;-52
2024/04/18 05:55:48;;;;;;;;;;;5.10;99.90;;;;;;5446144;26;19928;-52
2024/04/18 05:58:15;;;;;;;;;;;5.30;99.90;;;;;;5452908;26;19928;-53
2024/04/18 06:00:40;;;;;;;;;;;5.50;99.90;;;;;;5449804;26;20379;-53
2024/04/18 06:03:06;;;;;;;;;;;5.60;99.90;;;;;;5449133;26;19937;-53
2024/04/18 06:05:32;;;;;;;;;;;5.80;99.90;;;;;;5452992;26;19940;-53
2024/04/18 06:07:58;;;;;;;;;;;5.90;99.90;;;;;;5455034;26;19939;-53
2024/04/18 06:10:23;;;;;;;;;;;6.00;99.90;;;;;;5449929;26;20002;-53
2024/04/18 06:12:49;;;;;;;;;;;6.30;99.90;;;;;;5448178;26;19928;-53
2024/04/18 06:15:15;;;;;;;;;;;6.30;99.90;;;;;;5451302;26;19948;-52
2024/04/18 06:17:41;;;;;;;;;;;6.30;99.90;;;;;;5449007;26;19933;-53
2024/04/18 06:20:07;;;;;;;;;;;6.40;99.90;;;;;;5448852;26;20005;-52
2024/04/18 06:22:34;;;;;;;;;;;6.60;99.90;;;;;;5452190;26;20259;-53
2024/04/18 06:24:59;;;;;;;;;;;6.60;99.90;;;;;;5450547;26;20332;-53
2024/04/18 06:27:25;;;;;;;;;;;6.60;99.90;;;;;;5453328;26;19978;-54
2024/04/18 06:29:51;;;;;;;;;;;6.70;99.90;;;;;;5450118;26;19993;-53
2024/04/18 06:32:17;;;;;;;;;;;6.80;99.90;;;;;;5447886;26;19974;-53
2024/04/18 06:34:43;;;;;;;;;;;7.00;99.90;;;;;;5442930;26;19935;-53
2024/04/18 06:37:09;;;;;;;;;;;7.10;99.90;;;;;;5450492;26;19935;-53
2024/04/18 06:39:34;;;;;;;;;;;7.20;99.90;;;;;;5453609;26;19983;-53
2024/04/18 06:42:01;;;;;;;;;;;7.10;99.90;;;;;;5451213;26;20620;-53
2024/04/18 06:44:27;;;;;;;;;;;7.20;99.90;;;;;;5453533;26;20004;-53
2024/04/18 06:46:53;;;;;;;;;;;7.20;99.90;;;;;;5451766;26;19940;-53
2024/04/18 06:49:18;;;;;;;;;;;7.30;99.90;;;;;;5456117;26;19961;-53
2024/04/18 06:51:44;;;;;;;;;;;7.30;99.90;;;;;;5455544;26;19935;-53
2024/04/18 06:54:10;;;;;;;;;;;7.30;99.90;;;;;;5449786;26;20358;-53
2024/04/18 06:56:36;;;;;;;;;;;7.30;99.90;;;;;;5445566;26;19986;-53
2024/04/18 06:59:02;;;;;;;;;;;7.30;99.90;;;;;;5449676;26;19964;-53
2024/04/18 07:01:27;;;;;;;;;;;7.30;99.90;;;;;;5446289;26;19990;-53
2024/04/18 07:03:53;;;;;;;;;;;7.30;99.90;;;;;;5444085;26;20423;-52
2024/04/18 07:06:19;;;;;;;;;;;7.40;99.90;;;;;;5451529;26;19928;-53
2024/04/18 07:08:45;;;;;;;;;;;7.40;99.90;;;;;;5448487;26;19956;-54
2024/04/18 07:11:10;;;;;;;;;;;7.40;99.90;;;;;;5449961;26;19929;-52
2024/04/18 07:13:36;;;;;;;;;;;7.50;99.90;;;;;;5444451;26;19957;-52
2024/04/18 07:16:03;;;;;;;;;;;7.50;99.90;;;;;;5448794;26;20228;-53
2024/04/18 07:18:29;;;;;;;;;;;7.60;99.90;;;;;;5447456;26;19964;-54
2024/04/18 07:20:55;;;;;;;;;;;7.80;99.90;;;;;;5451553;26;19950;-54
2024/04/18 07:23:23;;;;;;;;;;;7.90;99.90;;;;;;5454361;26;19934;-54
2024/04/18 07:25:48;;;;;;;;;;;8.10;99.90;;;;;;5453319;26;19928;-53
2024/04/18 07:28:18;;;;;;;;;;;8.30;99.90;;;;;;5447239;26;19985;-54
2024/04/18 07:30:45;;;;;;;;;;;8.60;99.90;;;;;;5445884;26;20269;-54
2024/04/18 07:33:10;;;;;;;;;;;8.70;99.90;;;;;;5448771;26;19964;-54
2024/04/18 07:35:36;;;;;;;;;;;9.00;99.90;;;;;;5453387;26;20023;-52
2024/04/18 07:38:02;;;;;;;;;;;9.20;99.90;;;;;;5452363;26;20732;-54
2024/04/18 07:40:28;;;;;;;;;;;9.40;99.90;;;;;;5447432;26;19938;-54
2024/04/18 07:42:54;;;;;;;;;;;9.60;99.90;;;;;;5450052;26;19935;-52
2024/04/18 07:45:21;;;;;;;;;;;9.90;99.90;;;;;;5445780;26;19929;-54
2024/04/18 07:47:46;;;;;;;;;;;10.40;99.90;;;;;;5438136;26;20062;-54
2024/04/18 07:50:12;;;;;;;;;;;11.00;99.90;;;;;;5438028;26;19973;-54
2024/04/18 07:52:41;;;;;;;;;;;11.10;99.90;;;;;;5436334;26;20398;-55
2024/04/18 07:55:06;;;;;;;;;;;11.40;99.90;;;;;;5448697;26;20387;-53
2024/04/18 07:57:32;;;;;;;;;;;11.50;99.90;;;;;;5447736;26;19961;-54
2024/04/18 07:59:58;;;;;;;;;;;11.70;99.90;;;;;;5447348;26;20458;-53
2024/04/18 08:02:24;;;;;;;;;;;12.10;99.90;;;;;;5449983;26;20057;-54
2024/04/18 08:04:49;;;;;;;;;;;12.60;99.90;;;;;;5445896;26;21396;-53
2024/04/18 08:07:15;;;;;;;;;;;13.00;99.90;;;;;;5450129;26;20384;-54
2024/04/18 08:09:41;;;;;;;;;;;12.80;99.90;;;;;;5452429;26;19928;-54
2024/04/18 08:12:07;;;;;;;;;;;12.30;99.90;;;;;;5447496;26;19936;-54
2024/04/18 08:14:32;;;;;;;;;;;12.10;99.90;;;;;;5443348;26;19928;-53
2024/04/18 08:16:58;;;;;;;;;;;11.80;99.90;;;;;;5449690;26;20012;-55
2024/04/18 08:19:24;;;;;;;;;;;11.50;99.90;;;;;;5448929;26;20053;-54
2024/04/18 08:21:49;;;;;;;;;;;11.30;99.90;;;;;;5450249;26;19980;-53
2024/04/18 08:24:26;;;;;;;;;;;11.30;99.90;;;;;;5452951;26;20327;-54
2024/04/18 08:26:52;;;;;;;;;;;11.50;99.90;;;;;;5451572;26;19928;-53
2024/04/18 08:29:22;;;;;;;;;;;11.40;99.90;;;;;;5447216;26;20435;-57
2024/04/18 08:31:51;;;;;;;;;;;11.50;99.90;;;;;;5447773;26;19947;-54
2024/04/18 08:34:16;;;;;;;;;;;12.10;99.90;;;;;;5452698;26;20337;-56
2024/04/18 08:36:42;;;;;;;;;;;12.50;99.90;;;;;;5451182;26;19932;-52
2024/04/18 08:39:08;;;;;;;;;;;12.90;99.90;;;;;;5444796;26;19944;-53
2024/04/18 08:41:34;;;;;;;;;;;12.90;99.90;;;;;;5450842;26;20773;-54
2024/04/18 08:44:02;;;;;;;;;;;13.50;99.90;;;;;;5450366;26;19940;-54
2024/04/18 08:46:28;;;;;;;;;;;13.50;98.20;;;;;;5448025;26;20012;-53
2024/04/18 08:48:54;;;;;;;;;;;13.80;98.00;;;;;;5450755;26;19935;-53
2024/04/18 08:51:20;;;;;;;;;;;13.70;98.40;;;;;;5446685;26;19928;-54
2024/04/18 08:53:46;;;;;;;;;;;13.80;96.90;;;;;;5447771;26;19935;-54
2024/04/18 08:56:13;;;;;;;;;;;13.90;96.20;;;;;;5450578;26;19929;-53
2024/04/18 08:58:39;;;;;;;;;;;14.20;96.70;;;;;;5441830;26;19928;-53
2024/04/18 09:01:05;;;;;;;;;;;14.70;96.30;;;;;;5434034;26;20009;-54
2024/04/18 09:03:31;;;;;;;;;;;14.40;95.90;;;;;;5434372;26;19940;-54
2024/04/18 09:05:56;;;;;;;;;;;13.70;95.60;;;;;;5451016;26;19948;-54
2024/04/18 09:08:22;;;;;;;;;;;13.80;96.30;;;;;;5450724;26;19968;-54
2024/04/18 09:10:48;;;;;;;;;;;14.00;95.90;;;;;;5450199;26;20454;-53
2024/04/18 09:13:14;;;;;;;;;;;14.20;95.60;;;;;;5444263;26;19927;-53
2024/04/18 09:15:39;;;;;;;;;;;14.10;96.10;;;;;;5442349;26;20251;-54
2024/04/18 09:18:06;;;;;;;;;;;14.00;96.30;;;;;;5448485;26;20455;-54
2024/04/18 09:20:33;;;;;;;;;;;13.90;94.60;;;;;;5444825;26;19936;-53
2024/04/18 09:22:59;;;;;;;;;;;13.80;95.10;;;;;;5448868;26;19936;-54
2024/04/18 09:25:25;;;;;;;;;;;13.90;95.60;;;;;;5448685;26;20269;-55
2024/04/18 09:27:50;;;;;;;;;;;14.00;94.60;;;;;;5440154;26;19928;-54
2024/04/18 09:30:16;;;;;;;;;;;13.90;96.10;;;;;;5449108;26;19936;-54
2024/04/18 09:32:42;;;;;;;;;;;14.10;96.00;;;;;;5449793;26;19996;-54
2024/04/18 09:35:08;;;;;;;;;;;14.20;95.20;;;;;;5445410;26;20164;-54
2024/04/18 09:37:39;;;;;;;;;;;14.30;95.10;;;;;;5454220;26;20461;-54
2024/04/18 09:40:05;;;;;;;;;;;14.10;94.20;;;;;;5453633;26;20277;-53
2024/04/18 09:42:49;;;;;;;;;;;13.90;95.10;;;;;;5455498;26;20346;-53
2024/04/18 09:45:18;;;;;;;;;;;13.90;95.30;;;;;;5447707;26;20348;-52
2024/04/18 09:47:44;;;;;;;;;;;13.70;94.20;;;;;;5447397;26;19932;-52
2024/04/18 09:50:12;;;;;;;;;;;13.70;95.30;;;;;;5447662;26;19951;-54
2024/04/18 09:52:38;;;;;;;;;;;13.70;95.80;;;;;;5448797;26;19935;-53
2024/04/18 09:55:04;;;;;;;;;;;13.70;96.30;;;;;;5450631;26;19987;-53
2024/04/18 09:57:30;;;;;;;;;;;13.30;95.30;;;;;;5456435;26;20008;-52
2024/04/18 09:59:57;;;;;;;;;;;13.10;96.10;;;;;;5450164;26;19936;-54
2024/04/18 10:02:23;;;;;;;;;;;13.00;96.40;;;;;;5450475;26;19928;-54
2024/04/18 10:04:49;;;;;;;;;;;12.90;97.40;;;;;;5448619;26;19937;-52
2024/04/18 10:07:17;;;;;;;;;;;12.80;97.20;;;;;;5451063;26;19935;-54
2024/04/18 10:09:43;;;;;;;;;;;12.70;99.60;;;;;;5449176;26;19927;-54
2024/04/18 10:12:09;;;;;;;;;;;12.70;99.90;;;;;;5450087;26;20321;-53
2024/04/18 10:14:38;;;;;;;;;;;12.60;99.90;;;;;;5451806;26;20264;-54
2024/04/18 10:17:04;;;;;;;;;;;12.50;99.90;;;;;;5442054;26;20013;-54
2024/04/18 10:19:31;;;;;;;;;;;12.60;99.90;;;;;;5448034;26;20017;-53
2024/04/18 10:21:57;;;;;;;;;;;12.70;99.90;;;;;;5433840;26;20659;-54
2024/04/18 10:24:23;;;;;;;;;;;12.70;99.90;;;;;;5446827;26;19928;-55
2024/04/18 10:27:01;;;;;;;;;;;12.80;99.90;;;;;;5444472;26;19935;-54
2024/04/18 10:29:27;;;;;;;;;;;12.70;99.90;;;;;;5443781;26;19929;-54
2024/04/18 10:31:57;;;;;;;;;;;12.60;99.90;;;;;;5443896;26;19934;-54
2024/04/18 10:34:28;;;;;;;;;;;12.90;99.90;;;;;;5454161;26;20266;-55
2024/04/18 10:36:56;;;;;;;;;;;13.30;99.90;;;;;;5451698;26;19928;-54
2024/04/18 10:39:28;;;;;;;;;;;13.60;99.90;;;;;;5451926;26;19928;-54
2024/04/18 10:41:57;;;;;;;;;;;13.40;99.90;;;;;;5448363;26;20364;-54
2024/04/18 10:44:24;;;;;;;;;;;13.00;99.60;;;;;;5448027;26;19928;-53
2024/04/18 10:46:52;;;;;;;;;;;13.10;99.90;;;;;;5449220;26;19932;-54
2024/04/18 10:49:18;;;;;;;;;;;13.00;99.90;;;;;;5447234;26;19936;-54
2024/04/18 10:51:44;;;;;;;;;;;12.90;99.90;;;;;;5446498;26;20320;-54
2024/04/18 10:54:11;;;;;;;;;;;12.30;99.90;;;;;;5450124;26;19996;-54
2024/04/18 10:56:36;;;;;;;;;;;12.30;99.90;;;;;;5444359;26;19937;-54
2024/04/18 10:59:02;;;;;;;;;;;12.10;99.90;;;;;;5446985;26;20488;-52
2024/04/18 11:01:31;;;;;;;;;;;12.10;99.90;;;;;;5440414;26;19937;-54
2024/04/18 11:03:57;;;;;;;;;;;12.20;99.90;;;;;;5447051;26;20375;-53
2024/04/18 11:06:23;;;;;;;;;;;12.40;99.90;;;;;;5454925;26;19929;-55
2024/04/18 11:08:51;;;;;;;;;;;12.80;99.90;;;;;;5448743;26;20513;-54
2024/04/18 11:11:18;;;;;;;;;;;13.00;99.90;;;;;;5447980;26;19997;-55
2024/04/18 11:13:43;;;;;;;;;;;13.50;99.90;;;;;;5452190;26;19934;-55
2024/04/18 11:16:09;;;;;;;;;;;13.50;99.90;;;;;;5447735;26;19936;-55
2024/04/18 11:18:35;;;;;;;;;;;13.30;99.50;;;;;;5442898;26;20351;-55
2024/04/18 11:21:02;;;;;;;;;;;13.40;99.80;;;;;;5449794;26;20402;-55
2024/04/18 11:23:28;;;;;;;;;;;13.50;99.70;;;;;;5445998;26;19936;-56
2024/04/18 11:25:54;;;;;;;;;;;13.50;99.90;;;;;;5454625;26;19928;-55
2024/04/18 11:28:20;;;;;;;;;;;13.40;99.90;;;;;;5449890;26;19980;-55
2024/04/18 11:30:46;;;;;;;;;;;13.30;99.40;;;;;;5449981;26;19943;-55
2024/04/18 11:33:11;;;;;;;;;;;13.00;98.90;;;;;;5452231;26;19929;-55
2024/04/18 11:35:37;;;;;;;;;;;13.20;99.90;;;;;;5447434;26;19932;-54
2024/04/18 11:38:05;;;;;;;;;;;13.20;98.60;;;;;;5455274;26;20665;-55
2024/04/18 11:40:31;;;;;;;;;;;13.10;98.70;;;;;;5449276;26;19928;-55
2024/04/18 11:42:58;;;;;;;;;;;13.10;98.50;;;;;;5452686;26;19986;-55
2024/04/18 11:45:24;;;;;;;;;;;13.00;98.00;;;;;;5451852;26;19935;-55
2024/04/18 11:47:56;;;;;;;;;;;13.10;99.00;;;;;;5447639;26;19935;-54
2024/04/18 11:50:22;;;;;;;;;;;13.40;99.00;;;;;;5449445;26;19936;-54
2024/04/18 11:52:48;;;;;;;;;;;13.30;99.50;;;;;;5441649;26;20560;-55
2024/04/18 11:55:14;;;;;;;;;;;13.20;98.40;;;;;;5441347;26;20807;-55
2024/04/18 11:57:39;;;;;;;;;;;13.00;98.90;;;;;;5448598;26;19928;-54
2024/04/18 12:00:05;;;;;;;;;;;13.00;99.10;;;;;;5449392;26;20393;-55
2024/04/18 12:02:31;;;;;;;;;;;12.80;99.00;;;;;;5447212;26;19935;-55
2024/04/18 12:04:57;;;;;;;;;;;12.90;99.90;;;;;;5448726;26;19940;-55
2024/04/18 12:07:23;;;;;;;;;;;13.10;99.10;;;;;;5453053;26;19940;-55
2024/04/18 12:09:51;;;;;;;;;;;13.30;99.20;;;;;;5449740;26;19994;-54
2024/04/18 12:12:17;;;;;;;;;;;13.60;97.80;;;;;;5450154;26;19928;-55
2024/04/18 12:14:46;;;;;;;;;;;13.50;98.50;;;;;;5447810;26;19940;-55
2024/04/18 12:17:12;;;;;;;;;;;13.40;98.00;;;;;;5450170;26;20002;-55
2024/04/18 12:19:38;;;;;;;;;;;13.30;98.40;;;;;;5445337;26;19928;-53
2024/04/18 12:22:08;;;;;;;;;;;13.20;98.50;;;;;;5445590;26;20506;-55
2024/04/18 12:24:34;;;;;;;;;;;13.00;98.30;;;;;;5447540;26;19940;-55
2024/04/18 12:27:00;;;;;;;;;;;13.00;99.30;;;;;;5443961;26;19928;-54
2024/04/18 12:29:26;;;;;;;;;;;13.10;99.80;;;;;;5452956;26;19933;-55
2024/04/18 12:31:51;;;;;;;;;;;12.90;99.60;;;;;;5449210;26;19935;-56
2024/04/18 12:34:18;;;;;;;;;;;12.90;99.00;;;;;;5449180;26;20477;-55
2024/04/18 12:36:44;;;;;;;;;;;13.00;99.10;;;;;;5448765;26;19940;-55
2024/04/18 12:39:10;;;;;;;;;;;13.40;99.30;;;;;;5447173;26;19981;-55
2024/04/18 12:41:36;;;;;;;;;;;13.40;98.50;;;;;;5440985;26;19940;-55
2024/04/18 12:44:01;;;;;;;;;;;13.40;98.00;;;;;;5439069;26;19935;-55
2024/04/18 12:46:27;;;;;;;;;;;13.60;97.80;;;;;;5438675;26;19946;-54
2024/04/18 12:48:55;;;;;;;;;;;13.60;98.40;;;;;;5433391;26;20142;-55
2024/04/18 12:51:22;;;;;;;;;;;13.30;98.00;;;;;;5446085;26;19935;-55
2024/04/18 12:53:48;;;;;;;;;;;13.30;98.80;;;;;;5442813;26;19940;-53
2024/04/18 12:56:14;;;;;;;;;;;13.00;98.10;;;;;;5443053;26;20495;-55
2024/04/18 12:58:39;;;;;;;;;;;13.00;97.70;;;;;;5446930;26;19928;-55
2024/04/18 13:01:05;;;;;;;;;;;12.90;97.90;;;;;;5448304;26;19935;-54
2024/04/18 13:03:31;;;;;;;;;;;12.80;98.10;;;;;;5436261;26;19940;-55
2024/04/18 13:05:57;;;;;;;;;;;13.00;99.00;;;;;;5429356;26;20356;-55
2024/04/18 13:08:22;;;;;;;;;;;13.40;99.90;;;;;;5445518;26;19939;-55
2024/04/18 13:10:48;;;;;;;;;;;13.70;98.90;;;;;;5454740;26;19944;-55
2024/04/18 13:13:15;;;;;;;;;;;13.70;97.80;;;;;;5451445;26;19928;-55
2024/04/18 13:15:41;;;;;;;;;;;13.80;98.70;;;;;;5445551;26;19943;-55
2024/04/18 13:18:07;;;;;;;;;;;14.10;98.10;;;;;;5450388;26;20462;-55
2024/04/18 13:20:32;;;;;;;;;;;14.20;96.20;;;;;;5444341;26;19936;-53
2024/04/18 13:22:58;;;;;;;;;;;14.10;96.60;;;;;;5449638;26;19928;-55
2024/04/18 13:25:24;;;;;;;;;;;14.00;96.20;;;;;;5445333;26;19928;-55
2024/04/18 13:27:49;;;;;;;;;;;13.80;95.10;;;;;;5448984;26;20375;-55
2024/04/18 13:30:15;;;;;;;;;;;13.70;95.70;;;;;;5452970;26;19934;-55
2024/04/18 13:32:41;;;;;;;;;;;13.70;96.30;;;;;;5450991;26;20256;-55
2024/04/18 13:35:07;;;;;;;;;;;13.60;95.20;;;;;;5451906;26;20203;-55
2024/04/18 13:37:33;;;;;;;;;;;13.50;95.90;;;;;;5442902;26;19935;-55
2024/04/18 13:39:59;;;;;;;;;;;13.20;95.00;;;;;;5439969;26;19969;-54
2024/04/18 13:42:24;;;;;;;;;;;13.40;96.50;;;;;;5435842;26;19932;-54
2024/04/18 13:44:51;;;;;;;;;;;13.60;96.50;;;;;;5451599;26;20017;-54
2024/04/18 13:47:17;;;;;;;;;;;13.90;96.40;;;;;;5456520;26;20454;-55
2024/04/18 13:49:43;;;;;;;;;;;13.90;95.30;;;;;;5441651;26;19928;-54
2024/04/18 13:52:09;;;;;;;;;;;13.90;94.50;;;;;;5446104;26;20005;-54
2024/04/18 13:54:35;;;;;;;;;;;13.80;95.90;;;;;;5455377;26;20243;-53
2024/04/18 13:57:02;;;;;;;;;;;13.60;96.00;;;;;;5454625;26;20431;-53
2024/04/18 13:59:28;;;;;;;;;;;13.50;96.10;;;;;;5451002;26;20730;-55
2024/04/18 14:01:54;;;;;;;;;;;13.20;96.00;;;;;;5449840;26;20005;-55
2024/04/18 14:04:20;;;;;;;;;;;13.30;96.20;;;;;;5442567;26;20370;-55
2024/04/18 14:06:45;;;;;;;;;;;13.10;97.70;;;;;;5445029;26;20286;-52
2024/04/18 14:09:11;;;;;;;;;;;13.10;96.80;;;;;;5446964;26;20436;-55
2024/04/18 14:11:37;;;;;;;;;;;12.90;96.70;;;;;;5443371;26;19928;-54
2024/04/18 14:14:02;;;;;;;;;;;12.70;96.60;;;;;;5448446;26;20399;-55
2024/04/18 14:19:16;;;;;;;;;;;12.40;97.00;;;;;;5445558;26;19933;-54
2024/04/18 14:21:42;;;;;;;;;;;12.30;97.50;;;;;;5439469;26;20348;-55
2024/04/18 14:24:08;;;;;;;;;;;12.20;97.20;;;;;;5453604;26;20239;-54